Time;durP1;ratioP1;P1;durP2;ratioP2;P2;SDS_P1;SDS_P2;PMS_P1;PMS_P2;Temp;Humidity;BMP_temperature;BMP_pressure;BME280_temperature;BME280_humidity;BME280_pressure;Samples;Min_cycle;Max_cycle;Signal;HPM_P1;HPM_P2
2022/08/29 00:00:37;;;;;;;11.38;3.45;;;17.20;99.90;;;;;;5108907;28;20046;-79
2022/08/29 00:03:05;;;;;;;8.57;3.55;;;17.20;99.90;;;;;;5108397;28;20441;-80
2022/08/29 00:05:33;;;;;;;7.85;3.58;;;17.10;99.90;;;;;;5112495;27;20039;-80
2022/08/29 00:08:00;;;;;;;;;;;17.20;99.90;;;;;;5113962;28;20392;-81
2022/08/29 00:10:27;;;;;;;11.18;3.25;;;17.20;99.90;;;;;;5091326;28;20382;-79
2022/08/29 00:12:53;;;;;;;8.73;3.20;;;17.20;99.90;;;;;;5121744;28;20036;-79
2022/08/29 00:15:20;;;;;;;10.27;3.28;;;17.20;99.90;;;;;;5118277;28;20089;-79
2022/08/29 00:17:45;;;;;;;7.20;2.97;;;17.10;99.90;;;;;;5127558;27;20119;-81
2022/08/29 00:20:18;;;;;;;13.45;3.20;;;17.10;99.90;;;;;;5111694;28;20121;-78
2022/08/29 00:22:43;;;;;;;11.50;3.72;;;17.10;99.90;;;;;;5123506;28;20123;-79
2022/08/29 00:25:11;;;;;;;14.75;2.92;;;17.10;99.90;;;;;;5113190;28;20067;-79
2022/08/29 00:27:37;;;;;;;;;;;17.00;99.90;;;;;;5118007;28;20060;-78
2022/08/29 00:30:05;;;;;;;10.48;3.13;;;17.00;99.90;;;;;;5119198;28;19930;-78
2022/08/29 00:32:33;;;;;;;13.48;3.50;;;17.10;99.90;;;;;;5108886;27;20119;-78
2022/08/29 00:35:04;;;;;;;13.75;3.60;;;17.00;99.90;;;;;;5111843;28;20043;-79
2022/08/29 00:37:30;;;;;;;10.02;3.28;;;17.00;99.90;;;;;;5112726;28;20119;-79
2022/08/29 00:39:56;;;;;;;8.07;3.05;;;17.00;99.90;;;;;;5107577;28;20194;-80
2022/08/29 00:42:22;;;;;;;8.30;2.90;;;17.00;99.90;;;;;;5108460;28;20559;-79
2022/08/29 00:44:47;;;;;;;12.45;3.22;;;17.00;99.90;;;;;;5106750;27;20431;-79
2022/08/29 00:47:18;;;;;;;9.43;3.10;;;17.00;99.90;;;;;;5107040;27;20045;-79
2022/08/29 00:49:47;;;;;;;9.02;3.17;;;17.00;99.90;;;;;;5113825;28;20065;-78
2022/08/29 00:52:18;;;;;;;8.50;2.67;;;17.00;99.90;;;;;;5103515;27;20044;-79
2022/08/29 00:54:49;;;;;;;6.43;2.90;;;17.00;99.90;;;;;;5107701;27;20042;-78
2022/08/29 00:57:18;;;;;;;9.32;2.90;;;17.00;99.90;;;;;;5110618;27;20039;-79
2022/08/29 00:59:44;;;;;;;10.23;3.60;;;17.10;99.90;;;;;;5104226;28;20110;-79
2022/08/29 01:02:10;;;;;;;9.50;2.63;;;17.10;99.90;;;;;;5101544;28;20115;-79
2022/08/29 01:04:38;;;;;;;8.07;2.38;;;17.10;99.90;;;;;;5110981;28;20047;-80
2022/08/29 01:07:04;;;;;;;11.10;3.25;;;17.10;99.90;;;;;;5115106;27;20035;-80
2022/08/29 01:09:31;;;;;;;5.55;2.30;;;17.10;99.90;;;;;;5111824;28;20289;-79
2022/08/29 01:12:16;;;;;;;10.10;2.50;;;17.10;99.90;;;;;;5112881;28;20038;-79
2022/08/29 01:14:47;;;;;;;8.30;2.50;;;17.10;99.90;;;;;;5110063;27;20100;-80
2022/08/29 01:17:18;;;;;;;5.63;2.30;;;17.10;99.90;;;;;;5107230;27;20302;-80
2022/08/29 01:19:56;;;;;;;10.57;2.50;;;17.00;99.90;;;;;;5108385;27;20429;-80
2022/08/29 01:22:47;;;;;;;6.60;2.53;;;17.00;99.90;;;;;;5108921;27;20487;-80
2022/08/29 01:25:19;;;;;;;7.70;2.17;;;17.00;99.90;;;;;;5101820;28;20043;-80
2022/08/29 01:28:03;;;;;;;7.47;2.30;;;17.00;99.90;;;;;;5104575;28;20040;-79
2022/08/29 01:30:29;;;;;;;7.82;2.65;;;17.00;99.90;;;;;;5107429;28;20043;-79
2022/08/29 01:32:56;;;;;;;7.45;2.20;;;17.00;99.90;;;;;;5094083;28;20071;-79
2022/08/29 01:35:23;;;;;;;7.20;2.45;;;17.00;99.90;;;;;;5112258;28;20339;-79
2022/08/29 01:37:49;;;;;;;8.98;2.88;;;17.00;99.90;;;;;;5102930;28;20051;-79
2022/08/29 01:40:15;;;;;;;6.60;2.40;;;17.00;99.90;;;;;;5107674;27;20096;-79
2022/08/29 01:42:41;;;;;;;7.60;2.35;;;17.00;99.90;;;;;;5106330;27;20035;-81
2022/08/29 01:45:08;;;;;;;7.63;2.40;;;17.00;99.90;;;;;;5101382;28;20044;-80
2022/08/29 01:47:34;;;;;;;11.52;2.40;;;17.00;99.90;;;;;;5099620;28;20047;-80
2022/08/29 01:50:04;;;;;;;10.60;2.85;;;17.00;99.90;;;;;;5099854;28;20051;-79
2022/08/29 01:52:31;;;;;;;9.90;2.70;;;17.00;99.90;;;;;;5110301;28;20027;-80
2022/08/29 01:54:56;;;;;;;7.90;2.20;;;17.10;99.90;;;;;;5110558;28;20050;-79
2022/08/29 01:57:22;;;;;;;9.88;2.67;;;17.10;99.90;;;;;;5108268;27;20039;-80
2022/08/29 01:59:48;;;;;;;9.63;2.60;;;17.10;99.90;;;;;;5111427;27;20039;-81
2022/08/29 02:02:20;;;;;;;9.07;2.40;;;17.10;99.90;;;;;;5111655;27;20086;-80
2022/08/29 02:04:47;;;;;;;12.02;2.97;;;17.10;99.90;;;;;;5105294;28;20052;-80
2022/08/29 02:07:19;;;;;;;8.73;2.17;;;17.00;99.90;;;;;;5099369;28;20127;-80
2022/08/29 02:09:45;;;;;;;12.40;2.70;;;17.00;99.90;;;;;;5104877;28;20058;-80
2022/08/29 02:12:12;;;;;;;12.23;2.45;;;17.10;99.90;;;;;;5104202;28;20051;-79
2022/08/29 02:14:38;;;;;;;8.50;2.20;;;17.10;99.90;;;;;;5111366;28;20043;-79
2022/08/29 02:17:05;;;;;;;11.90;3.08;;;17.00;99.90;;;;;;5107503;28;20032;-79
2022/08/29 02:19:31;;;;;;;7.18;2.70;;;17.00;99.90;;;;;;5103771;28;20039;-78
2022/08/29 02:21:58;;;;;;;7.07;2.50;;;17.10;99.90;;;;;;5107884;28;20039;-78
2022/08/29 02:24:24;;;;;;;11.05;2.55;;;17.00;99.90;;;;;;5109726;28;20495;-78
2022/08/29 02:26:49;;;;;;;11.68;2.58;;;17.00;99.90;;;;;;5108559;27;20487;-78
2022/08/29 02:29:15;;;;;;;13.82;2.95;;;17.00;99.90;;;;;;5105558;28;20088;-77
2022/08/29 02:31:42;;;;;;;14.40;3.00;;;17.00;99.90;;;;;;5104376;28;20080;-78
2022/08/29 02:34:08;;;;;;;15.02;3.03;;;16.90;99.90;;;;;;5109718;28;20040;-78
2022/08/29 02:36:36;;;;;;;17.77;2.97;;;16.90;99.90;;;;;;5111183;28;20123;-78
2022/08/29 02:39:03;;;;;;;7.82;2.75;;;16.90;99.90;;;;;;5118207;27;20051;-78
2022/08/29 02:41:30;;;;;;;8.57;2.78;;;16.80;99.90;;;;;;5112210;28;20122;-78
2022/08/29 02:43:56;;;;;;;8.27;2.60;;;16.80;99.90;;;;;;5108192;28;20055;-78
2022/08/29 02:46:22;;;;;;;12.85;3.03;;;16.80;99.90;;;;;;5108535;28;20049;-78
2022/08/29 02:48:48;;;;;;;10.02;2.88;;;16.80;99.90;;;;;;5108421;28;20051;-78
2022/08/29 02:51:22;;;;;;;13.85;2.92;;;16.80;99.90;;;;;;5103896;28;20122;-78
2022/08/29 02:53:49;;;;;;;8.82;3.15;;;16.80;99.90;;;;;;5111483;28;20067;-78
2022/08/29 02:56:15;;;;;;;15.00;3.25;;;16.90;99.90;;;;;;5111560;28;20046;-78
2022/08/29 02:58:41;;;;;;;11.50;2.70;;;16.80;99.90;;;;;;5097607;28;20434;-78
2022/08/29 03:01:07;;;;;;;7.47;2.67;;;16.80;99.90;;;;;;5113192;27;20109;-77
2022/08/29 03:03:34;;;;;;;13.40;2.85;;;16.90;99.90;;;;;;5110150;28;20036;-78
2022/08/29 03:06:00;;;;;;;14.93;3.00;;;16.80;99.90;;;;;;5112578;27;20043;-78
2022/08/29 03:08:26;;;;;;;15.10;2.97;;;16.80;99.90;;;;;;5085850;28;20055;-78
2022/08/29 03:10:51;;;;;;;11.02;2.60;;;16.90;99.90;;;;;;5111338;28;20036;-77
2022/08/29 03:13:18;;;;;;;13.20;3.00;;;16.90;99.90;;;;;;5105468;28;20058;-78
2022/08/29 03:15:44;;;;;;;11.25;3.08;;;16.90;99.90;;;;;;5106769;27;20105;-78
2022/08/29 03:18:10;;;;;;;13.35;2.97;;;16.80;99.90;;;;;;5109115;28;20060;-77
2022/08/29 03:20:36;;;;;;;13.23;2.90;;;16.80;99.90;;;;;;5111390;27;20044;-79
2022/08/29 03:23:04;;;;;;;8.40;2.85;;;16.90;99.90;;;;;;5111621;28;20040;-79
2022/08/29 03:25:30;;;;;;;16.05;2.80;;;17.00;99.90;;;;;;5114776;27;20066;-80
2022/08/29 03:27:58;;;;;;;10.30;2.55;;;16.90;99.90;;;;;;5114136;28;20101;-79
2022/08/29 03:30:24;;;;;;;11.68;3.33;;;17.00;99.90;;;;;;5139345;27;20046;-81
2022/08/29 03:32:50;;;;;;;7.40;2.35;;;17.00;99.90;;;;;;5122802;28;20047;-79
2022/08/29 03:35:18;;;;;;;10.50;2.80;;;16.90;99.90;;;;;;5115125;27;20071;-80
2022/08/29 03:37:44;;;;;;;12.85;2.90;;;16.90;99.90;;;;;;5111265;27;21248;-78
2022/08/29 03:40:12;;;;;;;12.27;2.67;;;16.90;99.90;;;;;;5116254;27;20047;-80
2022/08/29 03:42:38;;;;;;;8.45;2.42;;;16.90;99.90;;;;;;5128331;28;20036;-80
2022/08/29 03:45:07;;;;;;;11.48;2.20;;;16.90;99.90;;;;;;5114691;28;20464;-81
2022/08/29 03:47:33;;;;;;;8.27;2.50;;;16.80;99.90;;;;;;5107774;27;20071;-78
2022/08/29 03:49:59;;;;;;;11.80;2.42;;;16.80;99.90;;;;;;5109043;28;20034;-78
2022/08/29 03:52:25;;;;;;;12.02;2.58;;;16.80;99.90;;;;;;5107296;28;20118;-78
2022/08/29 03:54:51;;;;;;;10.70;2.45;;;16.70;99.90;;;;;;5137499;27;20047;-79
2022/08/29 03:57:17;;;;;;;10.15;2.75;;;16.70;99.90;;;;;;5109436;27;20036;-79
2022/08/29 03:59:42;;;;;;;10.57;2.95;;;16.70;99.90;;;;;;5110373;28;20369;-80
2022/08/29 04:02:08;;;;;;;9.48;2.47;;;16.70;99.90;;;;;;5104405;27;20096;-79
2022/08/29 04:07:18;;;;;;;7.22;2.30;;;16.70;99.90;;;;;;5107792;28;20073;-79
2022/08/29 04:09:44;;;;;;;10.45;2.50;;;16.80;99.90;;;;;;5115339;28;20035;-79
2022/08/29 04:12:12;;;;;;;10.30;2.60;;;16.70;99.90;;;;;;5090667;28;20116;-79
2022/08/29 04:14:39;;;;;;;12.00;2.70;;;16.70;99.90;;;;;;5111338;27;20047;-78
2022/08/29 04:17:05;;;;;;;12.38;2.30;;;16.70;99.90;;;;;;5105126;28;20039;-79
2022/08/29 04:19:32;;;;;;;9.75;2.45;;;16.70;99.90;;;;;;5110433;27;20047;-78
2022/08/29 04:21:57;;;;;;;12.73;2.60;;;16.70;99.90;;;;;;5099249;28;20048;-78
2022/08/29 04:24:24;;;;;;;13.10;2.53;;;16.70;99.90;;;;;;5112626;28;20035;-79
2022/08/29 04:26:49;;;;;;;16.77;3.13;;;16.70;99.90;;;;;;5105087;27;20048;-79
2022/08/29 04:29:15;;;;;;;10.70;3.20;;;16.70;99.90;;;;;;5106347;28;20042;-79
2022/08/29 04:31:42;;;;;;;6.10;2.38;;;16.70;99.90;;;;;;5106102;27;20119;-78
2022/08/29 04:34:11;;;;;;;15.13;3.10;;;16.70;99.90;;;;;;5101810;27;20039;-77
2022/08/29 04:36:40;;;;;;;12.32;2.65;;;16.60;99.90;;;;;;5102794;27;20059;-77
2022/08/29 04:39:07;;;;;;;9.88;2.50;;;16.60;99.90;;;;;;5111642;28;20136;-79
2022/08/29 04:41:33;;;;;;;7.53;2.55;;;16.60;99.90;;;;;;5113461;28;20038;-79
2022/08/29 04:44:00;;;;;;;9.27;2.50;;;16.70;99.90;;;;;;5106500;28;20096;-79
2022/08/29 04:46:26;;;;;;;9.25;2.63;;;16.70;99.90;;;;;;5109996;27;20170;-79
2022/08/29 04:48:52;;;;;;;11.93;2.53;;;16.70;99.90;;;;;;5118971;27;20040;-80
2022/08/29 04:51:19;;;;;;;12.55;2.70;;;16.70;99.90;;;;;;5112999;28;20039;-79
2022/08/29 04:53:45;;;;;;;7.50;2.53;;;16.70;99.90;;;;;;5106721;28;20454;-78
2022/08/29 04:56:12;;;;;;;9.02;2.80;;;16.80;99.90;;;;;;5112436;28;20123;-79
2022/08/29 04:58:40;;;;;;;9.43;2.22;;;16.70;99.90;;;;;;5124778;27;20044;-78
2022/08/29 05:01:06;;;;;;;13.13;3.28;;;16.80;99.90;;;;;;5113052;28;20078;-78
2022/08/29 05:03:32;;;;;;;9.00;3.03;;;16.70;99.90;;;;;;5108865;27;20394;-78
2022/08/29 05:06:01;;;;;;;8.40;2.55;;;16.80;99.90;;;;;;5108386;28;20082;-80
2022/08/29 05:08:27;;;;;;;7.38;2.55;;;16.80;99.90;;;;;;5109650;28;20108;-78
2022/08/29 05:10:53;;;;;;;8.27;2.58;;;16.80;99.90;;;;;;5108356;28;22157;-78
2022/08/29 05:13:19;;;;;;;11.90;2.60;;;16.80;99.90;;;;;;5108790;28;20119;-79
2022/08/29 05:15:45;;;;;;;9.45;3.13;;;16.80;99.90;;;;;;5100349;28;20075;-80
2022/08/29 05:18:16;;;;;;;9.20;2.35;;;16.90;99.90;;;;;;5109481;28;20067;-78
2022/08/29 05:20:45;;;;;;;7.32;2.95;;;16.90;99.90;;;;;;5104860;28;20044;-79
2022/08/29 05:23:12;;;;;;;8.82;2.50;;;16.90;99.90;;;;;;5109821;27;20043;-78
2022/08/29 05:25:40;;;;;;;9.65;3.03;;;16.80;99.90;;;;;;5119100;28;20073;-80
2022/08/29 05:28:06;;;;;;;8.20;2.42;;;16.90;99.90;;;;;;5114983;28;20100;-78
2022/08/29 05:30:32;;;;;;;10.05;2.70;;;16.90;99.90;;;;;;5114326;28;20115;-79
2022/08/29 05:32:58;;;;;;;9.85;2.80;;;17.00;99.90;;;;;;5112421;28;20123;-79
2022/08/29 05:35:24;;;;;;;8.55;2.65;;;17.00;99.90;;;;;;5080840;28;20039;-78
2022/08/29 05:37:50;;;;;;;9.35;2.50;;;17.00;99.90;;;;;;5103155;28;20105;-78
2022/08/29 05:40:16;;;;;;;7.35;2.63;;;16.90;99.90;;;;;;5105616;28;20521;-78
2022/08/29 05:42:42;;;;;;;10.15;2.83;;;17.00;99.90;;;;;;5103453;28;20044;-77
2022/08/29 05:45:08;;;;;;;7.47;2.38;;;17.00;99.90;;;;;;5107851;28;20039;-77
2022/08/29 05:47:34;;;;;;;10.38;2.33;;;17.10;99.90;;;;;;5104737;28;20356;-79
2022/08/29 05:50:00;;;;;;;7.75;2.72;;;17.00;99.90;;;;;;5107458;28;20104;-79
2022/08/29 05:52:26;;;;;;;8.30;2.50;;;17.10;99.90;;;;;;5106050;28;20036;-78
2022/08/29 05:54:52;;;;;;;7.82;2.83;;;17.00;99.90;;;;;;5110478;28;20090;-79
2022/08/29 05:57:21;;;;;;;7.18;2.97;;;17.00;99.90;;;;;;5108794;28;20032;-78
2022/08/29 05:59:49;;;;;;;15.05;3.20;;;17.10;99.90;;;;;;5105158;28;20385;-79
2022/08/29 06:02:16;;;;;;;12.40;2.90;;;17.10;99.90;;;;;;5111019;28;20040;-79
2022/08/29 06:04:42;;;;;;;12.23;3.25;;;17.20;99.90;;;;;;5107636;28;20058;-78
2022/08/29 06:07:09;;;;;;;11.20;2.90;;;17.20;99.90;;;;;;5108161;28;20044;-78
2022/08/29 06:09:37;;;;;;;14.00;3.42;;;17.20;99.90;;;;;;5098455;28;20130;-79
2022/08/29 06:12:03;;;;;;;15.23;3.08;;;17.20;99.90;;;;;;5104353;28;20035;-78
2022/08/29 06:14:29;;;;;;;8.70;2.42;;;17.30;99.90;;;;;;5108446;28;20043;-80
2022/08/29 06:16:55;;;;;;;10.63;2.60;;;17.30;99.90;;;;;;5105082;28;20031;-78
2022/08/29 06:19:21;;;;;;;9.05;3.17;;;17.40;99.90;;;;;;5103046;28;20359;-79
2022/08/29 06:21:47;;;;;;;15.13;3.17;;;17.40;99.90;;;;;;5104677;28;20388;-79
2022/08/29 06:24:13;;;;;;;8.45;2.70;;;17.40;99.90;;;;;;5100716;28;20035;-78
2022/08/29 06:26:39;;;;;;;8.65;2.47;;;17.50;99.90;;;;;;5109885;28;20036;-79
2022/08/29 06:29:07;;;;;;;14.85;3.33;;;17.50;99.90;;;;;;5103825;28;20760;-80
2022/08/29 06:31:33;;;;;;;;;;;17.60;99.90;;;;;;5105235;28;20082;-80
2022/08/29 06:34:01;;;;;;;9.02;2.63;;;17.60;99.90;;;;;;5109598;28;19951;-79
2022/08/29 06:36:28;;;;;;;14.70;3.35;;;17.70;99.90;;;;;;5107163;28;20419;-78
2022/08/29 06:38:55;;;;;;;9.05;3.03;;;17.70;99.90;;;;;;5109205;28;20047;-81
2022/08/29 06:41:21;;;;;;;10.15;3.00;;;17.80;99.90;;;;;;5122386;28;20036;-80
2022/08/29 06:43:46;;;;;;;13.13;3.70;;;17.90;99.90;;;;;;5123684;28;20051;-79
2022/08/29 06:46:33;;;;;;;16.58;3.28;;;18.00;99.90;;;;;;5114076;28;20468;-78
2022/08/29 06:49:01;;;;;;;12.30;3.38;;;18.00;99.90;;;;;;5112410;28;20050;-80
2022/08/29 06:51:31;;;;;;;;;;;18.10;99.90;;;;;;5112128;28;20046;-78
2022/08/29 06:54:00;;;;;;;12.32;3.20;;;18.20;99.90;;;;;;5102369;28;19920;-81
2022/08/29 06:56:26;;;;;;;14.50;3.53;;;18.40;99.90;;;;;;5106545;28;20048;-77
2022/08/29 06:58:52;;;;;;;11.80;3.50;;;18.60;99.90;;;;;;5111743;28;20101;-80
2022/08/29 07:01:19;;;;;;;13.80;3.33;;;18.70;99.90;;;;;;5107643;28;20426;-78
2022/08/29 07:03:45;;;;;;;22.85;3.75;;;18.80;99.90;;;;;;5104675;28;20040;-79
2022/08/29 07:06:11;;;;;;;18.52;4.20;;;18.90;99.90;;;;;;5106721;28;20043;-78
2022/08/29 07:08:38;;;;;;;20.35;3.55;;;19.00;99.90;;;;;;5104748;28;20039;-79
2022/08/29 07:11:03;;;;;;;12.57;4.13;;;19.10;99.90;;;;;;5109239;28;20397;-80
2022/08/29 07:13:29;;;;;;;18.85;4.10;;;19.10;99.90;;;;;;5104586;28;20036;-78
2022/08/29 07:15:56;;;;;;;12.48;3.50;;;19.10;99.90;;;;;;5101966;28;20097;-79
2022/08/29 07:18:22;;;;;;;18.17;3.63;;;19.10;99.90;;;;;;5104007;28;20111;-79
2022/08/29 07:20:48;;;;;;;14.75;3.85;;;19.00;99.90;;;;;;5099573;28;20803;-78
2022/08/29 07:23:14;;;;;;;15.75;3.92;;;19.10;99.90;;;;;;5104941;28;20054;-78
2022/08/29 07:25:40;;;;;;;16.38;3.75;;;19.00;99.90;;;;;;5104754;28;20043;-80
2022/08/29 07:28:05;;;;;;;16.30;3.70;;;18.90;99.90;;;;;;5100877;28;20488;-80
2022/08/29 07:30:32;;;;;;;18.50;3.30;;;18.90;99.90;;;;;;5104447;28;20043;-79
2022/08/29 07:32:58;;;;;;;11.05;3.90;;;19.00;99.90;;;;;;5105721;28;20040;-77
2022/08/29 07:35:24;;;;;;;11.48;3.22;;;19.00;99.90;;;;;;5104575;28;20116;-77
2022/08/29 07:38:02;;;;;;;15.60;3.70;;;19.10;99.90;;;;;;5102649;28;20492;-77
2022/08/29 07:40:28;;;;;;;14.88;4.28;;;19.10;99.90;;;;;;5102445;28;20040;-79
2022/08/29 07:42:54;;;;;;;15.80;3.95;;;19.10;99.90;;;;;;5110850;28;20035;-79
2022/08/29 07:45:20;;;;;;;17.90;4.20;;;19.20;99.90;;;;;;5111843;28;20047;-79
2022/08/29 07:47:45;;;;;;;8.80;3.38;;;19.30;99.90;;;;;;5106429;28;20040;-80
2022/08/29 07:50:12;;;;;;;15.77;3.80;;;19.40;99.90;;;;;;5105113;28;20040;-78
2022/08/29 07:52:39;;;;;;;17.70;3.75;;;19.40;99.90;;;;;;5114576;28;20093;-79
2022/08/29 07:55:06;;;;;;;17.48;5.20;;;19.40;99.90;;;;;;5116935;27;20057;-80
2022/08/29 07:57:32;;;;;;;16.88;3.88;;;19.30;99.90;;;;;;5104692;27;20047;-78
2022/08/29 07:59:59;;;;;;;20.13;4.22;;;19.30;99.90;;;;;;5108575;28;20407;-79
2022/08/29 08:02:24;;;;;;;13.23;3.37;;;19.30;99.90;;;;;;5118586;28;20048;-79
2022/08/29 08:04:50;;;;;;;14.63;3.47;;;19.30;99.90;;;;;;5116653;28;20354;-81
2022/08/29 08:07:17;;;;;;;21.45;4.75;;;19.30;99.90;;;;;;5113040;28;20047;-81
2022/08/29 08:09:43;;;;;;;18.60;4.53;;;19.50;99.90;;;;;;5110131;28;20465;-83
2022/08/29 08:12:09;;;;;;;28.48;4.88;;;19.50;99.90;;;;;;5111019;28;20105;-80
2022/08/29 08:14:35;;;;;;;17.55;4.20;;;19.60;99.90;;;;;;5109904;28;20116;-80
2022/08/29 08:17:00;;;;;;;9.85;3.70;;;19.60;99.90;;;;;;5106517;28;20115;-80
2022/08/29 08:19:27;;;;;;;20.15;4.47;;;19.70;99.90;;;;;;5114298;28;20093;-80
2022/08/29 08:21:52;;;;;;;12.80;3.65;;;19.80;99.90;;;;;;5111597;28;20389;-78
2022/08/29 08:24:29;;;;;;;15.38;4.57;;;19.80;99.90;;;;;;5114072;28;20028;-78
2022/08/29 08:26:55;;;;;;;13.77;4.40;;;19.70;99.90;;;;;;5116064;28;20043;-78
2022/08/29 08:29:21;;;;;;;22.15;4.53;;;19.70;99.90;;;;;;5110598;28;20122;-79
2022/08/29 08:31:49;;;;;;;19.20;5.18;;;19.60;99.90;;;;;;5110559;28;20120;-79
2022/08/29 08:34:15;;;;;;;;;;;19.60;99.90;;;;;;5107841;28;20111;-80
2022/08/29 08:36:43;;;;;;;28.58;4.85;;;19.60;99.90;;;;;;5111889;28;19970;-79
2022/08/29 08:39:10;;;;;;;15.27;4.68;;;19.70;99.90;;;;;;5114014;28;20091;-79
2022/08/29 08:42:21;;;;;;;18.67;5.05;;;19.70;99.90;;;;;;5103991;28;20051;-78
2022/08/29 08:45:04;;;;;;;15.65;4.22;;;19.70;99.90;;;;;;5113791;27;20506;-78
2022/08/29 08:47:43;;;;;;;14.63;4.70;;;19.60;99.90;;;;;;5107682;27;20039;-77
2022/08/29 08:50:29;;;;;;;12.07;4.03;;;19.60;99.90;;;;;;5131724;27;20055;-80
2022/08/29 08:53:01;;;;;;;16.23;4.57;;;19.60;99.90;;;;;;5112781;28;20361;-77
2022/08/29 08:55:27;;;;;;;15.95;4.38;;;19.70;99.90;;;;;;5113690;28;20047;-77
2022/08/29 08:58:16;;;;;;;22.08;4.65;;;19.70;99.90;;;;;;5109488;28;20453;-78
2022/08/29 09:00:45;;;;;;;19.77;4.85;;;19.70;99.90;;;;;;5099139;28;20051;-79
2022/08/29 09:03:17;;;;;;;19.08;4.65;;;19.80;99.90;;;;;;5107969;28;20516;-77
2022/08/29 09:06:16;;;;;;;17.13;4.18;;;19.90;99.90;;;;;;5110585;28;20047;-77
2022/08/29 09:08:42;;;;;;;17.58;4.25;;;20.00;99.90;;;;;;5094364;28;20040;-78
2022/08/29 09:11:32;;;;;;;11.32;4.18;;;20.20;99.90;;;;;;5088633;28;20063;-77
2022/08/29 09:14:19;;;;;;;18.20;3.95;;;20.50;99.90;;;;;;5110112;27;20445;-79
2022/08/29 09:16:49;;;;;;;19.05;4.85;;;20.80;99.90;;;;;;5109881;28;20054;-78
2022/08/29 09:19:15;;;;;;;12.88;3.97;;;20.90;99.90;;;;;;5107240;28;20169;-78
2022/08/29 09:21:52;;;;;;;9.43;3.33;;;20.90;99.90;;;;;;5107615;28;20487;-77
2022/08/29 09:24:51;;;;;;;12.95;4.10;;;20.90;99.90;;;;;;5111849;28;20128;-78
2022/08/29 09:27:23;;;;;;;15.27;4.00;;;20.80;99.90;;;;;;5111177;28;20034;-78
2022/08/29 09:29:56;;;;;;;12.25;3.80;;;20.70;99.90;;;;;;5105242;28;20104;-77
2022/08/29 09:32:21;;;;;;;14.07;3.75;;;20.70;99.90;;;;;;5107295;28;20044;-77
2022/08/29 09:34:47;;;;;;;11.23;3.53;;;20.70;99.90;;;;;;5107248;28;20063;-76
2022/08/29 09:37:28;;;;;;;11.50;3.47;;;20.60;99.90;;;;;;5103692;28;20036;-76
2022/08/29 09:40:09;;;;;;;10.95;4.28;;;20.60;99.90;;;;;;5108561;28;20042;-78
2022/08/29 09:42:41;;;;;;;15.50;3.60;;;20.60;99.90;;;;;;5106008;28;20496;-78
2022/08/29 09:45:23;;;;;;;15.65;3.97;;;20.60;99.90;;;;;;5113335;28;20050;-77
2022/08/29 09:48:07;;;;;;;19.40;4.30;;;20.60;99.90;;;;;;5105827;28;20480;-77
2022/08/29 09:50:32;;;;;;;12.05;3.20;;;20.50;99.90;;;;;;5096228;28;20089;-77
2022/08/29 09:53:00;;;;;;;12.20;3.90;;;20.50;99.90;;;;;;5100947;27;20449;-78
2022/08/29 09:55:41;;;;;;;12.93;3.40;;;20.60;99.90;;;;;;5110018;28;20120;-77
2022/08/29 09:58:28;;;;;;;14.18;3.75;;;20.50;99.90;;;;;;5107503;28;20071;-77
2022/08/29 10:00:56;;;;;;;16.40;4.10;;;20.60;99.90;;;;;;5105017;28;20044;-77
2022/08/29 10:03:23;;;;;;;14.40;4.25;;;20.60;99.90;;;;;;5114335;28;20035;-77
2022/08/29 10:06:03;;;;;;;16.85;3.92;;;20.60;99.90;;;;;;5105996;28;20126;-76
2022/08/29 10:08:36;;;;;;;10.27;3.47;;;20.70;99.90;;;;;;5105446;28;20047;-76
2022/08/29 10:11:15;;;;;;;11.23;3.17;;;20.60;99.90;;;;;;5110907;28;20176;-77
2022/08/29 10:13:55;;;;;;;12.40;4.22;;;20.60;99.90;;;;;;5095947;28;20050;-77
2022/08/29 10:16:27;;;;;;;21.58;4.38;;;20.70;99.90;;;;;;5104187;28;20043;-76
2022/08/29 10:19:08;;;;;;;11.70;3.83;;;20.90;99.90;;;;;;5111146;28;20096;-77
2022/08/29 10:21:57;;;;;;;11.48;3.50;;;21.00;99.90;;;;;;5106118;28;20035;-77
2022/08/29 10:24:29;;;;;;;;;;;21.10;99.90;;;;;;5110087;28;20055;-77
2022/08/29 10:27:03;;;;;;;15.77;3.33;;;21.40;99.90;;;;;;5108340;28;19954;-77
2022/08/29 10:29:38;;;;;;;12.48;3.75;;;21.60;99.90;;;;;;5100566;28;20074;-80
2022/08/29 10:32:18;;;;;;;17.50;4.15;;;22.00;99.90;;;;;;5108741;28;20377;-79
2022/08/29 10:35:07;;;;;;;15.05;4.43;;;22.50;99.90;;;;;;5108924;28;20040;-79
2022/08/29 10:37:46;;;;;;;16.05;3.63;;;22.80;99.90;;;;;;5113385;28;20054;-77
2022/08/29 10:40:25;;;;;;;16.25;3.40;;;22.90;99.90;;;;;;5113030;28;20051;-77
2022/08/29 10:43:19;;;;;;;17.95;3.45;;;23.00;99.90;;;;;;5107128;28;20038;-78
2022/08/29 10:45:58;;;;;;;10.85;3.33;;;23.20;99.90;;;;;;5114238;28;20043;-78
2022/08/29 10:48:43;;;;;;;11.82;3.53;;;22.90;99.90;;;;;;5105339;28;20051;-77
2022/08/29 10:51:31;;;;;;;8.05;3.15;;;22.70;99.90;;;;;;5104953;28;20074;-77
2022/08/29 10:54:24;;;;;;;11.35;3.65;;;22.50;99.90;;;;;;5110116;28;20036;-78
2022/08/29 10:56:52;;;;;;;14.73;3.60;;;22.20;99.90;;;;;;5065559;28;20052;-77
2022/08/29 10:59:59;;;;;;;10.57;3.50;;;22.00;99.90;;;;;;5098921;28;20050;-78
2022/08/29 11:02:51;;;;;;;11.98;3.22;;;22.00;99.90;;;;;;5124043;27;20043;-78
2022/08/29 11:05:23;;;;;;;14.25;3.95;;;22.00;99.90;;;;;;5109251;28;20108;-78
2022/08/29 11:08:16;;;;;;;16.85;4.13;;;21.80;99.90;;;;;;5107277;28;20043;-76
2022/08/29 11:10:44;;;;;;;12.07;3.85;;;21.50;99.90;;;;;;5098452;28;20135;-80
2022/08/29 11:13:23;;;;;;;10.77;3.35;;;21.20;99.90;;;;;;5111593;28;20040;-77
2022/08/29 11:16:00;;;;;;;11.90;3.47;;;21.20;99.90;;;;;;5110135;28;20548;-77
2022/08/29 11:18:46;;;;;;;18.88;5.03;;;21.20;99.90;;;;;;5104328;28;20044;-81
2022/08/29 11:21:23;;;;;;;11.95;3.00;;;21.20;99.90;;;;;;5099563;28;20446;-77
2022/08/29 11:23:49;;;;;;;8.82;3.13;;;21.10;99.90;;;;;;5112452;28;20106;-77
2022/08/29 11:26:28;;;;;;;13.00;3.75;;;20.90;99.90;;;;;;5107322;28;20039;-77
2022/08/29 11:29:36;;;;;;;10.73;3.30;;;20.90;99.90;;;;;;5109973;27;20079;-79
2022/08/29 11:32:39;;;;;;;11.65;3.10;;;20.90;99.90;;;;;;5097136;27;20067;-79
2022/08/29 11:35:19;;;;;;;13.32;3.25;;;20.90;99.90;;;;;;4993354;27;20051;-78
2022/08/29 11:38:02;;;;;;;11.82;3.10;;;20.90;99.90;;;;;;5105363;28;20100;-78
2022/08/29 11:40:57;;;;;;;12.15;3.80;;;20.90;99.90;;;;;;5104980;28;20127;-78
2022/08/29 11:43:33;;;;;;;12.73;3.63;;;20.90;99.90;;;;;;5115013;28;20127;-80
2022/08/29 11:46:02;;;;;;;13.27;3.08;;;20.90;99.90;;;;;;5112753;27;20518;-81
2022/08/29 11:48:30;;;;;;;10.93;3.78;;;20.90;99.90;;;;;;5115332;28;20035;-79
2022/08/29 11:50:56;;;;;;;12.57;3.72;;;21.00;99.90;;;;;;5117838;28;20039;-78
2022/08/29 11:53:33;;;;;;;11.90;3.30;;;21.00;99.90;;;;;;5108601;28;20031;-79
2022/08/29 11:56:14;;;;;;;13.15;3.50;;;21.10;99.90;;;;;;5110155;28;20036;-80
2022/08/29 11:58:47;;;;;;;12.00;3.25;;;21.20;99.90;;;;;;5111919;28;20055;-77
2022/08/29 12:01:35;;;;;;;10.32;3.00;;;21.20;99.90;;;;;;5109041;28;20083;-80
2022/08/29 12:04:06;;;;;;;9.38;3.22;;;21.20;99.90;;;;;;5112198;28;20537;-78
2022/08/29 12:06:41;;;;;;;10.48;3.10;;;21.20;99.90;;;;;;5112844;28;20047;-80
2022/08/29 12:09:12;;;;;;;8.02;3.08;;;21.10;99.90;;;;;;5114388;28;20392;-77
2022/08/29 12:12:12;;;;;;;9.60;3.45;;;21.10;99.90;;;;;;5103498;28;20503;-77
2022/08/29 12:14:42;;;;;;;8.45;3.00;;;21.10;99.90;;;;;;5075211;28;20126;-79
2022/08/29 12:17:29;;;;;;;7.57;2.83;;;21.20;99.90;;;;;;5110405;28;20046;-78
2022/08/29 12:19:55;;;;;;;8.23;2.80;;;21.30;99.90;;;;;;5105107;28;20476;-78
2022/08/29 12:22:42;;;;;;;7.60;3.00;;;21.30;99.90;;;;;;5112271;28;20075;-77
2022/08/29 12:25:26;;;;;;;10.40;3.00;;;21.40;99.90;;;;;;5112571;28;20079;-78
2022/08/29 12:28:06;;;;;;;8.05;2.58;;;21.40;99.90;;;;;;5109133;28;20092;-78
2022/08/29 12:30:41;;;;;;;7.95;2.97;;;21.40;99.90;;;;;;5099261;28;20054;-79
2022/08/29 12:33:09;;;;;;;6.85;2.85;;;21.40;99.90;;;;;;5112186;28;20100;-77
2022/08/29 12:36:10;;;;;;;9.30;2.70;;;21.40;99.90;;;;;;5125277;27;20052;-79
2022/08/29 12:39:18;;;;;;;9.73;3.10;;;21.30;99.90;;;;;;5049698;28;20114;-77
2022/08/29 12:42:12;;;;;;;7.70;2.58;;;21.30;99.90;;;;;;5107327;28;20494;-77
2022/08/29 12:44:46;;;;;;;8.85;2.95;;;21.20;99.90;;;;;;5106490;28;20411;-78
2022/08/29 12:47:24;;;;;;;8.05;2.90;;;21.10;99.90;;;;;;5095913;28;20047;-78
2022/08/29 12:49:58;;;;;;;7.45;2.55;;;21.10;99.90;;;;;;5099603;28;20492;-78
2022/08/29 12:52:33;;;;;;;7.63;2.55;;;21.20;99.90;;;;;;5101977;28;20043;-79
2022/08/29 12:55:23;;;;;;;10.93;3.13;;;21.20;99.90;;;;;;5099418;28;20058;-81
2022/08/29 12:57:50;;;;;;;6.22;2.80;;;21.30;99.90;;;;;;5084100;28;20051;-78
2022/08/29 13:00:22;;;;;;;9.23;2.80;;;21.30;99.90;;;;;;5105464;28;20185;-78
2022/08/29 13:03:06;;;;;;;6.72;2.67;;;21.30;99.90;;;;;;5111312;28;20048;-76
2022/08/29 13:05:34;;;;;;;7.72;2.60;;;21.40;99.90;;;;;;5103508;28;20036;-80